TimeEST,TemperatureF,Dew PointF,Humidity,Sea Level PressureIn,VisibilityMPH,Wind Direction,Wind SpeedMPH,Gust SpeedMPH,PrecipitationIn,Events,Conditions,WindDirDegrees,DateUTC
12:53 AM,36.0,17.1,46,29.82,10.0,West,13.8,17.3,N/A,,Mostly Cloudy,280,2012-12-23 05:53:00
1:53 AM,34.0,18.0,52,29.85,10.0,West,8.1,-,N/A,,Scattered Clouds,270,2012-12-23 06:53:00
2:53 AM,37.0,19.0,48,29.87,10.0,West,9.2,-,N/A,,Overcast,270,2012-12-23 07:53:00
3:53 AM,35.1,19.0,52,29.88,10.0,WSW,9.2,-,N/A,,Mostly Cloudy,250,2012-12-23 08:53:00
4:53 AM,33.1,19.0,56,29.89,10.0,WSW,9.2,-,N/A,,Clear,250,2012-12-23 09:53:00
5:53 AM,33.1,19.9,59,29.91,10.0,WSW,8.1,-,N/A,,Scattered Clouds,250,2012-12-23 10:53:00
6:53 AM,30.9,19.9,64,29.93,10.0,West,8.1,-,N/A,,Clear,260,2012-12-23 11:53:00
7:53 AM,33.1,21.9,64,29.94,10.0,SW,4.6,-,N/A,,Clear,220,2012-12-23 12:53:00
8:53 AM,37.9,21.9,53,29.96,10.0,West,10.4,-,N/A,,Clear,260,2012-12-23 13:53:00
9:53 AM,39.9,21.0,47,29.95,10.0,West,12.7,23.0,N/A,,Clear,270,2012-12-23 14:53:00
10:53 AM,39.0,21.9,50,29.94,10.0,WSW,11.5,-,N/A,,Scattered Clouds,250,2012-12-23 15:53:00
11:53 AM,41.0,21.0,45,29.92,10.0,WNW,13.8,-,N/A,,Mostly Cloudy,290,2012-12-23 16:53:00
12:53 PM,43.0,21.0,42,29.88,10.0,West,10.4,-,N/A,,Clear,260,2012-12-23 17:53:00
1:53 PM,44.1,24.1,45,29.87,10.0,WSW,16.1,20.7,N/A,,Clear,240,2012-12-23 18:53:00
2:53 PM,41.0,25.0,53,29.88,10.0,SW,13.8,21.9,N/A,,Clear,230,2012-12-23 19:53:00
3:53 PM,39.0,25.0,57,29.88,10.0,WSW,11.5,-,N/A,,Clear,240,2012-12-23 20:53:00
4:53 PM,37.0,23.0,57,29.88,10.0,WSW,9.2,-,N/A,,Clear,240,2012-12-23 21:53:00
5:53 PM,39.0,24.1,55,29.88,10.0,WSW,11.5,17.3,N/A,,Clear,240,2012-12-23 22:53:00
6:53 PM,37.0,21.0,52,29.91,10.0,West,6.9,-,N/A,,Clear,260,2012-12-23 23:53:00
7:53 PM,32.0,19.0,59,29.92,10.0,West,4.6,-,N/A,,Clear,260,2012-12-24 00:53:00
8:53 PM,28.0,16.0,61,29.93,10.0,Calm,Calm,-,N/A,,Clear,0,2012-12-24 01:53:00
9:53 PM,24.1,15.1,69,29.94,10.0,Calm,Calm,-,N/A,,Clear,0,2012-12-24 02:53:00
10:53 PM,21.9,15.1,75,29.94,10.0,Calm,Calm,-,N/A,,Clear,0,2012-12-24 03:53:00
11:53 PM,19.9,14.0,78,29.95,10.0,Calm,Calm,-,N/A,,Clear,0,2012-12-24 04:53:00